sensor_id;sensor_type;location;lat;lon;timestamp;temperature;humidity
48836;DHT22;62581;47.342;7.908;2023-04-03T00:01:53;9.60;99.90
48836;DHT22;62581;47.342;7.908;2023-04-03T00:04:20;9.60;99.90
48836;DHT22;62581;47.342;7.908;2023-04-03T00:06:48;9.60;99.90
48836;DHT22;62581;47.342;7.908;2023-04-03T00:09:15;9.60;99.90
48836;DHT22;62581;47.342;7.908;2023-04-03T00:11:42;9.60;99.90
48836;DHT22;62581;47.342;7.908;2023-04-03T00:14:09;9.60;99.90
48836;DHT22;62581;47.342;7.908;2023-04-03T00:16:38;9.60;99.90
48836;DHT22;62581;47.342;7.908;2023-04-03T00:19:05;9.60;99.90
48836;DHT22;62581;47.342;7.908;2023-04-03T00:21:32;9.60;99.90
48836;DHT22;62581;47.342;7.908;2023-04-03T00:24:00;9.50;99.90
48836;DHT22;62581;47.342;7.908;2023-04-03T00:26:27;9.50;99.90
48836;DHT22;62581;47.342;7.908;2023-04-03T00:28:54;9.40;99.90
48836;DHT22;62581;47.342;7.908;2023-04-03T00:31:21;9.40;99.90
48836;DHT22;62581;47.342;7.908;2023-04-03T00:33:50;9.30;99.90
48836;DHT22;62581;47.342;7.908;2023-04-03T00:36:17;9.30;99.90
48836;DHT22;62581;47.342;7.908;2023-04-03T00:38:44;9.30;99.90
48836;DHT22;62581;47.342;7.908;2023-04-03T00:41:11;9.20;99.90
48836;DHT22;62581;47.342;7.908;2023-04-03T00:43:39;9.20;99.90
48836;DHT22;62581;47.342;7.908;2023-04-03T00:46:06;9.10;99.90
48836;DHT22;62581;47.342;7.908;2023-04-03T00:48:36;9.00;99.90
48836;DHT22;62581;47.342;7.908;2023-04-03T00:51:08;9.00;99.90
48836;DHT22;62581;47.342;7.908;2023-04-03T00:53:39;9.00;99.90
48836;DHT22;62581;47.342;7.908;2023-04-03T00:56:09;9.00;99.90
48836;DHT22;62581;47.342;7.908;2023-04-03T00:58:40;9.00;99.90
48836;DHT22;62581;47.342;7.908;2023-04-03T01:01:12;8.90;99.90
48836;DHT22;62581;47.342;7.908;2023-04-03T01:03:40;8.90;99.90
48836;DHT22;62581;47.342;7.908;2023-04-03T01:06:09;8.90;99.90
48836;DHT22;62581;47.342;7.908;2023-04-03T01:08:36;8.90;99.90
48836;DHT22;62581;47.342;7.908;2023-04-03T01:11:04;8.90;99.90
48836;DHT22;62581;47.342;7.908;2023-04-03T01:13:33;8.80;99.90
48836;DHT22;62581;47.342;7.908;2023-04-03T01:16:01;8.80;99.90
48836;DHT22;62581;47.342;7.908;2023-04-03T01:18:29;8.70;99.90
48836;DHT22;62581;47.342;7.908;2023-04-03T01:21:30;8.80;99.90
48836;DHT22;62581;47.342;7.908;2023-04-03T01:24:25;8.70;99.90
48836;DHT22;62581;47.342;7.908;2023-04-03T01:26:54;8.70;99.90
48836;DHT22;62581;47.342;7.908;2023-04-03T01:29:21;8.60;99.90
48836;DHT22;62581;47.342;7.908;2023-04-03T01:31:52;8.50;99.90
48836;DHT22;62581;47.342;7.908;2023-04-03T01:34:20;8.50;99.90
48836;DHT22;62581;47.342;7.908;2023-04-03T01:36:47;8.50;99.90
48836;DHT22;62581;47.342;7.908;2023-04-03T01:39:15;8.40;99.90
48836;DHT22;62581;47.342;7.908;2023-04-03T01:41:42;8.40;99.90
48836;DHT22;62581;47.342;7.908;2023-04-03T01:44:09;8.40;99.90
48836;DHT22;62581;47.342;7.908;2023-04-03T01:46:36;8.40;99.90
48836;DHT22;62581;47.342;7.908;2023-04-03T01:49:05;8.30;99.90
48836;DHT22;62581;47.342;7.908;2023-04-03T01:51:33;8.40;99.90
48836;DHT22;62581;47.342;7.908;2023-04-03T01:54:00;8.30;99.90
48836;DHT22;62581;47.342;7.908;2023-04-03T01:56:27;8.30;99.90
48836;DHT22;62581;47.342;7.908;2023-04-03T01:58:55;8.30;99.90
48836;DHT22;62581;47.342;7.908;2023-04-03T02:01:22;8.30;99.90
48836;DHT22;62581;47.342;7.908;2023-04-03T02:03:51;8.30;99.90
48836;DHT22;62581;47.342;7.908;2023-04-03T02:06:20;8.20;99.90
48836;DHT22;62581;47.342;7.908;2023-04-03T02:08:47;8.20;99.90
48836;DHT22;62581;47.342;7.908;2023-04-03T02:11:14;8.20;99.90
48836;DHT22;62581;47.342;7.908;2023-04-03T02:13:41;8.10;99.90
48836;DHT22;62581;47.342;7.908;2023-04-03T02:16:10;8.00;99.90
48836;DHT22;62581;47.342;7.908;2023-04-03T02:18:38;8.00;99.90
48836;DHT22;62581;47.342;7.908;2023-04-03T02:21:05;8.00;99.90
48836;DHT22;62581;47.342;7.908;2023-04-03T02:23:34;7.90;99.90
48836;DHT22;62581;47.342;7.908;2023-04-03T02:26:04;7.90;99.90
48836;DHT22;62581;47.342;7.908;2023-04-03T02:28:33;7.90;99.90
48836;DHT22;62581;47.342;7.908;2023-04-03T02:31:00;7.80;99.90
48836;DHT22;62581;47.342;7.908;2023-04-03T02:33:28;7.80;99.90
48836;DHT22;62581;47.342;7.908;2023-04-03T02:35:56;7.80;99.90
48836;DHT22;62581;47.342;7.908;2023-04-03T02:38:24;7.80;99.90
48836;DHT22;62581;47.342;7.908;2023-04-03T02:40:53;7.70;99.90
48836;DHT22;62581;47.342;7.908;2023-04-03T02:43:20;7.70;99.90
48836;DHT22;62581;47.342;7.908;2023-04-03T02:45:47;7.70;99.90
48836;DHT22;62581;47.342;7.908;2023-04-03T02:48:14;7.70;99.90
48836;DHT22;62581;47.342;7.908;2023-04-03T02:50:42;7.70;99.90
48836;DHT22;62581;47.342;7.908;2023-04-03T02:53:10;7.60;99.90
48836;DHT22;62581;47.342;7.908;2023-04-03T02:55:37;7.60;99.90
48836;DHT22;62581;47.342;7.908;2023-04-03T02:58:05;7.60;99.90
48836;DHT22;62581;47.342;7.908;2023-04-03T03:00:33;7.50;99.90
48836;DHT22;62581;47.342;7.908;2023-04-03T03:03:00;7.50;99.90
48836;DHT22;62581;47.342;7.908;2023-04-03T03:05:28;7.50;99.90
48836;DHT22;62581;47.342;7.908;2023-04-03T03:07:55;7.50;99.90
48836;DHT22;62581;47.342;7.908;2023-04-03T03:10:22;7.50;99.90
48836;DHT22;62581;47.342;7.908;2023-04-03T03:12:50;7.40;99.90
48836;DHT22;62581;47.342;7.908;2023-04-03T03:15:19;7.40;99.90
48836;DHT22;62581;47.342;7.908;2023-04-03T03:17:46;7.40;99.90
48836;DHT22;62581;47.342;7.908;2023-04-03T03:20:13;7.40;99.90
48836;DHT22;62581;47.342;7.908;2023-04-03T03:22:41;7.30;99.90
48836;DHT22;62581;47.342;7.908;2023-04-03T03:25:09;7.40;99.90
48836;DHT22;62581;47.342;7.908;2023-04-03T03:27:36;7.30;99.90
48836;DHT22;62581;47.342;7.908;2023-04-03T03:30:04;7.30;99.90
48836;DHT22;62581;47.342;7.908;2023-04-03T03:32:33;7.30;99.90
48836;DHT22;62581;47.342;7.908;2023-04-03T03:35:00;7.30;99.90
48836;DHT22;62581;47.342;7.908;2023-04-03T03:37:28;7.20;99.90
48836;DHT22;62581;47.342;7.908;2023-04-03T03:39:55;7.20;99.90
48836;DHT22;62581;47.342;7.908;2023-04-03T03:42:22;7.20;99.90
48836;DHT22;62581;47.342;7.908;2023-04-03T03:44:49;7.10;99.90
48836;DHT22;62581;47.342;7.908;2023-04-03T03:47:17;7.10;99.90
48836;DHT22;62581;47.342;7.908;2023-04-03T03:49:46;7.10;99.90
48836;DHT22;62581;47.342;7.908;2023-04-03T03:52:13;7.10;99.90
48836;DHT22;62581;47.342;7.908;2023-04-03T03:54:40;7.10;99.90
48836;DHT22;62581;47.342;7.908;2023-04-03T03:57:07;7.10;99.90
48836;DHT22;62581;47.342;7.908;2023-04-03T03:59:34;7.10;99.90
48836;DHT22;62581;47.342;7.908;2023-04-03T04:02:01;7.10;99.90
48836;DHT22;62581;47.342;7.908;2023-04-03T04:04:28;7.00;99.90
48836;DHT22;62581;47.342;7.908;2023-04-03T04:06:57;7.00;99.90
48836;DHT22;62581;47.342;7.908;2023-04-03T04:09:26;7.00;99.90
48836;DHT22;62581;47.342;7.908;2023-04-03T04:11:53;7.00;99.90
48836;DHT22;62581;47.342;7.908;2023-04-03T04:14:20;6.90;99.90
48836;DHT22;62581;47.342;7.908;2023-04-03T04:16:48;6.90;99.90
48836;DHT22;62581;47.342;7.908;2023-04-03T04:19:15;6.90;99.90
48836;DHT22;62581;47.342;7.908;2023-04-03T04:21:42;6.90;99.90
48836;DHT22;62581;47.342;7.908;2023-04-03T04:24:11;6.90;99.90
48836;DHT22;62581;47.342;7.908;2023-04-03T04:26:38;6.90;99.90
48836;DHT22;62581;47.342;7.908;2023-04-03T04:29:09;6.80;99.90
48836;DHT22;62581;47.342;7.908;2023-04-03T04:31:36;6.80;99.90
48836;DHT22;62581;47.342;7.908;2023-04-03T04:34:03;6.80;99.90
48836;DHT22;62581;47.342;7.908;2023-04-03T04:36:30;6.70;99.90
48836;DHT22;62581;47.342;7.908;2023-04-03T04:38:58;6.70;99.90
48836;DHT22;62581;47.342;7.908;2023-04-03T04:41:27;6.70;99.90
48836;DHT22;62581;47.342;7.908;2023-04-03T04:43:54;6.70;99.90
48836;DHT22;62581;47.342;7.908;2023-04-03T04:46:21;6.70;99.90
48836;DHT22;62581;47.342;7.908;2023-04-03T04:48:49;6.70;99.90
48836;DHT22;62581;47.342;7.908;2023-04-03T04:51:16;6.70;99.90
48836;DHT22;62581;47.342;7.908;2023-04-03T04:53:43;6.70;99.90
48836;DHT22;62581;47.342;7.908;2023-04-03T04:56:11;6.70;99.90
48836;DHT22;62581;47.342;7.908;2023-04-03T04:58:40;6.70;99.90
48836;DHT22;62581;47.342;7.908;2023-04-03T05:01:09;6.60;99.90
48836;DHT22;62581;47.342;7.908;2023-04-03T05:03:36;6.60;99.90
48836;DHT22;62581;47.342;7.908;2023-04-03T05:06:04;6.60;99.90
48836;DHT22;62581;47.342;7.908;2023-04-03T05:08:31;6.60;99.90
48836;DHT22;62581;47.342;7.908;2023-04-03T05:10:59;6.70;99.90
48836;DHT22;62581;47.342;7.908;2023-04-03T05:13:26;6.80;99.90
48836;DHT22;62581;47.342;7.908;2023-04-03T05:15:54;6.70;99.90
48836;DHT22;62581;47.342;7.908;2023-04-03T05:18:22;6.70;99.90
48836;DHT22;62581;47.342;7.908;2023-04-03T05:20:49;6.70;99.90
48836;DHT22;62581;47.342;7.908;2023-04-03T05:23:17;6.70;99.90
48836;DHT22;62581;47.342;7.908;2023-04-03T05:25:45;6.70;99.90
48836;DHT22;62581;47.342;7.908;2023-04-03T05:28:14;6.60;99.90
48836;DHT22;62581;47.342;7.908;2023-04-03T05:30:41;6.60;99.90
48836;DHT22;62581;47.342;7.908;2023-04-03T05:33:10;6.60;99.90
48836;DHT22;62581;47.342;7.908;2023-04-03T05:35:37;6.60;99.90
48836;DHT22;62581;47.342;7.908;2023-04-03T05:38:07;6.60;99.90
48836;DHT22;62581;47.342;7.908;2023-04-03T05:40:34;6.60;99.90
48836;DHT22;62581;47.342;7.908;2023-04-03T05:43:02;6.60;99.90
48836;DHT22;62581;47.342;7.908;2023-04-03T05:45:29;6.50;99.90
48836;DHT22;62581;47.342;7.908;2023-04-03T05:47:56;6.50;99.90
48836;DHT22;62581;47.342;7.908;2023-04-03T05:50:25;6.50;99.90
48836;DHT22;62581;47.342;7.908;2023-04-03T05:52:55;6.50;99.90
48836;DHT22;62581;47.342;7.908;2023-04-03T05:55:23;6.40;99.90
48836;DHT22;62581;47.342;7.908;2023-04-03T05:57:51;6.50;99.90
48836;DHT22;62581;47.342;7.908;2023-04-03T06:00:18;6.40;99.90
48836;DHT22;62581;47.342;7.908;2023-04-03T06:02:46;6.40;99.90
48836;DHT22;62581;47.342;7.908;2023-04-03T06:05:13;6.40;99.90
48836;DHT22;62581;47.342;7.908;2023-04-03T06:07:42;6.40;99.90
48836;DHT22;62581;47.342;7.908;2023-04-03T06:10:11;6.30;99.90
48836;DHT22;62581;47.342;7.908;2023-04-03T06:12:38;6.40;99.90
48836;DHT22;62581;47.342;7.908;2023-04-03T06:15:07;6.30;99.90
48836;DHT22;62581;47.342;7.908;2023-04-03T06:17:35;6.30;99.90
48836;DHT22;62581;47.342;7.908;2023-04-03T06:20:03;6.30;99.90
48836;DHT22;62581;47.342;7.908;2023-04-03T06:22:31;6.40;99.90
48836;DHT22;62581;47.342;7.908;2023-04-03T06:24:59;6.30;99.90
48836;DHT22;62581;47.342;7.908;2023-04-03T06:27:27;6.40;99.90
48836;DHT22;62581;47.342;7.908;2023-04-03T06:29:54;6.40;99.90
48836;DHT22;62581;47.342;7.908;2023-04-03T06:32:21;6.40;99.90
48836;DHT22;62581;47.342;7.908;2023-04-03T06:34:49;6.40;99.90
48836;DHT22;62581;47.342;7.908;2023-04-03T06:37:18;6.40;99.90
48836;DHT22;62581;47.342;7.908;2023-04-03T06:39:46;6.40;99.90
48836;DHT22;62581;47.342;7.908;2023-04-03T06:42:15;6.40;99.90
48836;DHT22;62581;47.342;7.908;2023-04-03T06:44:42;6.40;99.90
48836;DHT22;62581;47.342;7.908;2023-04-03T06:47:10;6.50;99.90
48836;DHT22;62581;47.342;7.908;2023-04-03T06:49:38;6.50;99.90
48836;DHT22;62581;47.342;7.908;2023-04-03T06:52:05;6.50;99.90
48836;DHT22;62581;47.342;7.908;2023-04-03T06:54:33;6.50;99.90
48836;DHT22;62581;47.342;7.908;2023-04-03T06:57:02;6.50;99.90
48836;DHT22;62581;47.342;7.908;2023-04-03T06:59:31;6.50;99.90
48836;DHT22;62581;47.342;7.908;2023-04-03T07:01:58;6.60;99.90
48836;DHT22;62581;47.342;7.908;2023-04-03T07:04:25;6.50;99.90
48836;DHT22;62581;47.342;7.908;2023-04-03T07:06:52;6.60;99.90
48836;DHT22;62581;47.342;7.908;2023-04-03T07:09:20;6.60;99.90
48836;DHT22;62581;47.342;7.908;2023-04-03T07:11:47;6.60;99.90
48836;DHT22;62581;47.342;7.908;2023-04-03T07:14:14;6.60;99.90
48836;DHT22;62581;47.342;7.908;2023-04-03T07:16:42;6.60;99.90
48836;DHT22;62581;47.342;7.908;2023-04-03T07:19:10;6.60;99.90
48836;DHT22;62581;47.342;7.908;2023-04-03T07:21:37;6.70;99.90
48836;DHT22;62581;47.342;7.908;2023-04-03T07:24:04;6.80;99.90
48836;DHT22;62581;47.342;7.908;2023-04-03T07:26:31;6.80;99.90
48836;DHT22;62581;47.342;7.908;2023-04-03T07:28:59;7.00;99.90
48836;DHT22;62581;47.342;7.908;2023-04-03T07:31:26;7.00;99.90
48836;DHT22;62581;47.342;7.908;2023-04-03T07:33:55;7.10;99.90
48836;DHT22;62581;47.342;7.908;2023-04-03T07:36:23;7.00;99.90
48836;DHT22;62581;47.342;7.908;2023-04-03T07:38:50;6.90;99.90
48836;DHT22;62581;47.342;7.908;2023-04-03T07:41:19;6.90;99.90
48836;DHT22;62581;47.342;7.908;2023-04-03T07:43:48;6.90;99.90
48836;DHT22;62581;47.342;7.908;2023-04-03T07:46:16;6.90;99.90
48836;DHT22;62581;47.342;7.908;2023-04-03T07:48:44;6.90;99.90
48836;DHT22;62581;47.342;7.908;2023-04-03T07:51:13;6.90;99.90
48836;DHT22;62581;47.342;7.908;2023-04-03T07:53:40;6.90;99.90
48836;DHT22;62581;47.342;7.908;2023-04-03T07:56:08;6.90;99.90
48836;DHT22;62581;47.342;7.908;2023-04-03T07:58:36;6.90;99.90
48836;DHT22;62581;47.342;7.908;2023-04-03T08:01:04;6.90;99.90
48836;DHT22;62581;47.342;7.908;2023-04-03T08:03:31;7.00;99.90
48836;DHT22;62581;47.342;7.908;2023-04-03T08:06:02;7.10;99.90
48836;DHT22;62581;47.342;7.908;2023-04-03T08:08:31;7.00;99.90
48836;DHT22;62581;47.342;7.908;2023-04-03T08:11:00;6.90;99.90
48836;DHT22;62581;47.342;7.908;2023-04-03T08:13:28;7.00;99.90
48836;DHT22;62581;47.342;7.908;2023-04-03T08:15:56;7.10;99.90
48836;DHT22;62581;47.342;7.908;2023-04-03T08:18:25;7.20;99.90
48836;DHT22;62581;47.342;7.908;2023-04-03T08:20:52;7.40;99.90
48836;DHT22;62581;47.342;7.908;2023-04-03T08:23:20;7.60;99.90
48836;DHT22;62581;47.342;7.908;2023-04-03T08:25:48;7.70;99.90
48836;DHT22;62581;47.342;7.908;2023-04-03T08:28:16;7.70;99.90
48836;DHT22;62581;47.342;7.908;2023-04-03T08:30:44;7.70;99.90
48836;DHT22;62581;47.342;7.908;2023-04-03T08:33:12;7.70;99.90
48836;DHT22;62581;47.342;7.908;2023-04-03T08:35:39;7.80;99.90
48836;DHT22;62581;47.342;7.908;2023-04-03T08:38:07;7.90;99.90
48836;DHT22;62581;47.342;7.908;2023-04-03T08:40:34;8.10;99.90
48836;DHT22;62581;47.342;7.908;2023-04-03T08:43:19;8.20;99.90
48836;DHT22;62581;47.342;7.908;2023-04-03T08:45:50;8.20;99.90
48836;DHT22;62581;47.342;7.908;2023-04-03T08:48:20;8.20;99.90
48836;DHT22;62581;47.342;7.908;2023-04-03T08:50:51;8.20;99.90
48836;DHT22;62581;47.342;7.908;2023-04-03T08:53:21;8.20;99.90
48836;DHT22;62581;47.342;7.908;2023-04-03T08:55:51;8.20;99.90
48836;DHT22;62581;47.342;7.908;2023-04-03T08:58:22;8.20;99.90
48836;DHT22;62581;47.342;7.908;2023-04-03T09:00:52;8.10;99.90
48836;DHT22;62581;47.342;7.908;2023-04-03T09:03:21;8.00;99.90
48836;DHT22;62581;47.342;7.908;2023-04-03T09:05:50;7.90;99.90
48836;DHT22;62581;47.342;7.908;2023-04-03T09:08:23;7.90;99.90
48836;DHT22;62581;47.342;7.908;2023-04-03T09:10:59;7.90;99.90
48836;DHT22;62581;47.342;7.908;2023-04-03T09:13:37;8.00;99.90
48836;DHT22;62581;47.342;7.908;2023-04-03T09:16:16;8.00;99.90
48836;DHT22;62581;47.342;7.908;2023-04-03T09:18:54;8.00;99.90
48836;DHT22;62581;47.342;7.908;2023-04-03T09:21:27;8.10;99.90
48836;DHT22;62581;47.342;7.908;2023-04-03T09:24:00;8.20;99.90
48836;DHT22;62581;47.342;7.908;2023-04-03T09:26:31;8.30;99.90
48836;DHT22;62581;47.342;7.908;2023-04-03T09:29:06;8.20;99.90
48836;DHT22;62581;47.342;7.908;2023-04-03T09:31:37;8.30;99.90
48836;DHT22;62581;47.342;7.908;2023-04-03T09:34:09;8.70;99.90
48836;DHT22;62581;47.342;7.908;2023-04-03T09:36:43;8.80;99.90
48836;DHT22;62581;47.342;7.908;2023-04-03T09:39:13;8.70;99.90
48836;DHT22;62581;47.342;7.908;2023-04-03T09:41:41;8.80;99.90
48836;DHT22;62581;47.342;7.908;2023-04-03T09:44:23;8.90;99.90
48836;DHT22;62581;47.342;7.908;2023-04-03T09:46:51;9.10;99.90
48836;DHT22;62581;47.342;7.908;2023-04-03T09:49:19;9.00;99.90
48836;DHT22;62581;47.342;7.908;2023-04-03T09:51:46;8.90;99.90
48836;DHT22;62581;47.342;7.908;2023-04-03T09:54:35;8.70;99.90
48836;DHT22;62581;47.342;7.908;2023-04-03T09:57:09;8.50;99.90
48836;DHT22;62581;47.342;7.908;2023-04-03T09:59:45;8.60;99.90
48836;DHT22;62581;47.342;7.908;2023-04-03T10:02:28;8.80;99.90
48836;DHT22;62581;47.342;7.908;2023-04-03T10:04:57;9.20;99.90
48836;DHT22;62581;47.342;7.908;2023-04-03T10:07:30;9.50;99.90
48836;DHT22;62581;47.342;7.908;2023-04-03T10:09:59;9.70;99.90
48836;DHT22;62581;47.342;7.908;2023-04-03T10:12:27;10.00;99.90
48836;DHT22;62581;47.342;7.908;2023-04-03T10:14:57;10.00;99.90
48836;DHT22;62581;47.342;7.908;2023-04-03T10:17:33;10.10;99.90
48836;DHT22;62581;47.342;7.908;2023-04-03T10:20:08;10.20;99.90
48836;DHT22;62581;47.342;7.908;2023-04-03T10:22:41;10.40;99.90
48836;DHT22;62581;47.342;7.908;2023-04-03T10:25:17;10.50;99.90
48836;DHT22;62581;47.342;7.908;2023-04-03T10:27:53;10.60;99.90
48836;DHT22;62581;47.342;7.908;2023-04-03T10:30:34;10.50;99.90
48836;DHT22;62581;47.342;7.908;2023-04-03T10:33:36;10.50;99.90
48836;DHT22;62581;47.342;7.908;2023-04-03T10:36:16;10.60;99.90
48836;DHT22;62581;47.342;7.908;2023-04-03T10:38:53;10.20;99.90
48836;DHT22;62581;47.342;7.908;2023-04-03T10:41:31;10.00;99.90
48836;DHT22;62581;47.342;7.908;2023-04-03T10:44:09;10.00;99.90
48836;DHT22;62581;47.342;7.908;2023-04-03T10:46:44;10.20;99.90
48836;DHT22;62581;47.342;7.908;2023-04-03T10:49:25;10.30;99.90
48836;DHT22;62581;47.342;7.908;2023-04-03T10:52:04;10.20;99.90
48836;DHT22;62581;47.342;7.908;2023-04-03T10:54:35;10.10;99.90
48836;DHT22;62581;47.342;7.908;2023-04-03T10:57:08;9.90;99.90
48836;DHT22;62581;47.342;7.908;2023-04-03T10:59:37;9.70;99.90
48836;DHT22;62581;47.342;7.908;2023-04-03T11:02:16;9.70;99.90
48836;DHT22;62581;47.342;7.908;2023-04-03T11:04:46;9.70;99.90
48836;DHT22;62581;47.342;7.908;2023-04-03T11:07:18;9.70;99.90
48836;DHT22;62581;47.342;7.908;2023-04-03T11:09:49;9.70;99.90
48836;DHT22;62581;47.342;7.908;2023-04-03T11:12:23;9.80;99.90
48836;DHT22;62581;47.342;7.908;2023-04-03T11:14:53;10.00;99.90
48836;DHT22;62581;47.342;7.908;2023-04-03T11:17:28;10.00;99.90
48836;DHT22;62581;47.342;7.908;2023-04-03T11:20:01;10.10;99.90
48836;DHT22;62581;47.342;7.908;2023-04-03T11:22:34;10.20;99.90
48836;DHT22;62581;47.342;7.908;2023-04-03T11:25:06;10.20;99.90
48836;DHT22;62581;47.342;7.908;2023-04-03T11:27:47;10.00;99.90
48836;DHT22;62581;47.342;7.908;2023-04-03T11:30:19;10.20;99.90
48836;DHT22;62581;47.342;7.908;2023-04-03T11:33:15;10.40;99.90
48836;DHT22;62581;47.342;7.908;2023-04-03T11:35:49;10.30;99.90
48836;DHT22;62581;47.342;7.908;2023-04-03T11:38:21;10.30;99.90
48836;DHT22;62581;47.342;7.908;2023-04-03T11:40:49;10.30;99.90
48836;DHT22;62581;47.342;7.908;2023-04-03T11:43:22;10.20;99.90
48836;DHT22;62581;47.342;7.908;2023-04-03T11:45:54;10.20;99.90
48836;DHT22;62581;47.342;7.908;2023-04-03T11:48:49;10.30;99.90
48836;DHT22;62581;47.342;7.908;2023-04-03T11:51:41;10.40;99.90
48836;DHT22;62581;47.342;7.908;2023-04-03T11:57:47;10.50;99.90
48836;DHT22;62581;47.342;7.908;2023-04-03T12:07:11;10.40;99.90
48836;DHT22;62581;47.342;7.908;2023-04-03T12:12:58;10.30;99.90
48836;DHT22;62581;47.342;7.908;2023-04-03T12:15:46;10.10;99.90
48836;DHT22;62581;47.342;7.908;2023-04-03T12:21:14;10.00;99.90
48836;DHT22;62581;47.342;7.908;2023-04-03T12:24:01;10.20;99.90
48836;DHT22;62581;47.342;7.908;2023-04-03T12:26:33;10.40;99.90
48836;DHT22;62581;47.342;7.908;2023-04-03T12:29:02;10.40;99.90
48836;DHT22;62581;47.342;7.908;2023-04-03T12:31:42;10.20;99.90
48836;DHT22;62581;47.342;7.908;2023-04-03T12:34:25;10.30;99.90
48836;DHT22;62581;47.342;7.908;2023-04-03T12:37:00;10.30;99.90
48836;DHT22;62581;47.342;7.908;2023-04-03T12:39:56;10.40;99.90
48836;DHT22;62581;47.342;7.908;2023-04-03T12:45:45;10.70;99.90
48836;DHT22;62581;47.342;7.908;2023-04-03T12:48:16;10.90;99.90
48836;DHT22;62581;47.342;7.908;2023-04-03T12:50:46;11.00;99.90
48836;DHT22;62581;47.342;7.908;2023-04-03T12:53:16;11.60;99.90
48836;DHT22;62581;47.342;7.908;2023-04-03T12:55:46;12.60;99.90
48836;DHT22;62581;47.342;7.908;2023-04-03T12:58:14;13.20;99.90
48836;DHT22;62581;47.342;7.908;2023-04-03T13:00:42;13.40;99.70
48836;DHT22;62581;47.342;7.908;2023-04-03T13:03:23;13.30;99.90
48836;DHT22;62581;47.342;7.908;2023-04-03T13:05:53;12.90;99.40
48836;DHT22;62581;47.342;7.908;2023-04-03T13:08:22;12.60;99.40
48836;DHT22;62581;47.342;7.908;2023-04-03T13:10:55;12.20;99.90
48836;DHT22;62581;47.342;7.908;2023-04-03T13:13:24;11.80;99.90
48836;DHT22;62581;47.342;7.908;2023-04-03T13:15:52;11.40;99.90
48836;DHT22;62581;47.342;7.908;2023-04-03T13:18:25;11.10;99.90
48836;DHT22;62581;47.342;7.908;2023-04-03T13:20:57;11.00;99.90
48836;DHT22;62581;47.342;7.908;2023-04-03T13:23:27;10.80;99.90
48836;DHT22;62581;47.342;7.908;2023-04-03T13:25:59;10.70;99.90
48836;DHT22;62581;47.342;7.908;2023-04-03T13:28:30;10.50;99.90
48836;DHT22;62581;47.342;7.908;2023-04-03T13:31:06;10.50;99.90
48836;DHT22;62581;47.342;7.908;2023-04-03T13:33:37;10.50;99.90
48836;DHT22;62581;47.342;7.908;2023-04-03T13:36:05;10.50;99.90
48836;DHT22;62581;47.342;7.908;2023-04-03T13:38:33;10.40;99.90
48836;DHT22;62581;47.342;7.908;2023-04-03T13:41:05;10.30;99.90
48836;DHT22;62581;47.342;7.908;2023-04-03T13:43:35;10.30;99.90
48836;DHT22;62581;47.342;7.908;2023-04-03T13:46:20;10.30;99.90
48836;DHT22;62581;47.342;7.908;2023-04-03T13:48:50;10.50;99.90
48836;DHT22;62581;47.342;7.908;2023-04-03T13:51:20;10.80;99.90
48836;DHT22;62581;47.342;7.908;2023-04-03T13:53:51;11.10;99.90
48836;DHT22;62581;47.342;7.908;2023-04-03T13:56:25;11.20;99.90
48836;DHT22;62581;47.342;7.908;2023-04-03T13:58:56;11.30;99.90
48836;DHT22;62581;47.342;7.908;2023-04-03T14:01:25;11.10;99.90
48836;DHT22;62581;47.342;7.908;2023-04-03T14:03:54;11.00;99.90
48836;DHT22;62581;47.342;7.908;2023-04-03T14:06:21;10.70;99.90
48836;DHT22;62581;47.342;7.908;2023-04-03T14:08:49;10.40;99.90
48836;DHT22;62581;47.342;7.908;2023-04-03T14:11:18;10.30;99.90
48836;DHT22;62581;47.342;7.908;2023-04-03T14:13:48;10.10;99.90
48836;DHT22;62581;47.342;7.908;2023-04-03T14:16:17;10.20;99.90
48836;DHT22;62581;47.342;7.908;2023-04-03T14:18:45;10.10;99.90
48836;DHT22;62581;47.342;7.908;2023-04-03T14:21:15;10.00;99.90
48836;DHT22;62581;47.342;7.908;2023-04-03T14:23:43;10.10;99.90
48836;DHT22;62581;47.342;7.908;2023-04-03T14:26:13;10.10;99.90
48836;DHT22;62581;47.342;7.908;2023-04-03T14:28:44;10.20;99.90
48836;DHT22;62581;47.342;7.908;2023-04-03T14:31:13;10.20;99.90
48836;DHT22;62581;47.342;7.908;2023-04-03T14:33:41;10.10;99.90
48836;DHT22;62581;47.342;7.908;2023-04-03T14:36:13;10.10;99.90
48836;DHT22;62581;47.342;7.908;2023-04-03T14:38:41;9.90;99.90
48836;DHT22;62581;47.342;7.908;2023-04-03T14:41:11;9.80;99.90
48836;DHT22;62581;47.342;7.908;2023-04-03T14:43:39;9.60;99.90
48836;DHT22;62581;47.342;7.908;2023-04-03T14:46:14;9.50;99.90
48836;DHT22;62581;47.342;7.908;2023-04-03T14:48:42;9.40;99.90
48836;DHT22;62581;47.342;7.908;2023-04-03T14:51:11;9.40;99.90
48836;DHT22;62581;47.342;7.908;2023-04-03T14:53:39;9.40;99.90
48836;DHT22;62581;47.342;7.908;2023-04-03T14:56:12;9.30;99.90
48836;DHT22;62581;47.342;7.908;2023-04-03T14:58:39;9.30;99.90
48836;DHT22;62581;47.342;7.908;2023-04-03T15:01:08;9.30;99.90
48836;DHT22;62581;47.342;7.908;2023-04-03T15:03:37;9.30;99.90
48836;DHT22;62581;47.342;7.908;2023-04-03T15:06:05;9.40;99.90
48836;DHT22;62581;47.342;7.908;2023-04-03T15:08:32;9.40;99.90
48836;DHT22;62581;47.342;7.908;2023-04-03T15:10:59;9.50;99.90
48836;DHT22;62581;47.342;7.908;2023-04-03T15:13:26;9.50;99.90
48836;DHT22;62581;47.342;7.908;2023-04-03T15:15:54;9.40;99.90
48836;DHT22;62581;47.342;7.908;2023-04-03T15:18:23;9.40;99.90
48836;DHT22;62581;47.342;7.908;2023-04-03T15:20:54;9.50;99.90
48836;DHT22;62581;47.342;7.908;2023-04-03T15:23:21;9.60;99.90
48836;DHT22;62581;47.342;7.908;2023-04-03T15:25:53;9.70;99.90
48836;DHT22;62581;47.342;7.908;2023-04-03T15:28:24;9.70;99.90
48836;DHT22;62581;47.342;7.908;2023-04-03T15:30:53;9.60;99.90
48836;DHT22;62581;47.342;7.908;2023-04-03T15:33:21;9.60;99.90
48836;DHT22;62581;47.342;7.908;2023-04-03T15:35:49;9.50;99.90
48836;DHT22;62581;47.342;7.908;2023-04-03T15:38:17;9.40;99.90
48836;DHT22;62581;47.342;7.908;2023-04-03T15:40:44;9.30;99.90
48836;DHT22;62581;47.342;7.908;2023-04-03T15:43:13;9.30;99.90
48836;DHT22;62581;47.342;7.908;2023-04-03T15:45:41;9.30;99.90
48836;DHT22;62581;47.342;7.908;2023-04-03T15:48:10;9.30;99.90
48836;DHT22;62581;47.342;7.908;2023-04-03T15:50:38;9.20;99.90
48836;DHT22;62581;47.342;7.908;2023-04-03T15:53:06;9.10;99.90
48836;DHT22;62581;47.342;7.908;2023-04-03T15:55:36;9.10;99.90
48836;DHT22;62581;47.342;7.908;2023-04-03T15:58:04;9.10;99.90
48836;DHT22;62581;47.342;7.908;2023-04-03T16:00:32;9.10;99.90
48836;DHT22;62581;47.342;7.908;2023-04-03T16:03:02;9.10;99.90
48836;DHT22;62581;47.342;7.908;2023-04-03T16:05:31;9.10;99.90
48836;DHT22;62581;47.342;7.908;2023-04-03T16:07:59;9.10;99.90
48836;DHT22;62581;47.342;7.908;2023-04-03T16:10:27;9.10;99.90
48836;DHT22;62581;47.342;7.908;2023-04-03T16:12:56;9.00;99.90
48836;DHT22;62581;47.342;7.908;2023-04-03T16:15:23;8.90;99.90
48836;DHT22;62581;47.342;7.908;2023-04-03T16:17:52;8.90;99.90
48836;DHT22;62581;47.342;7.908;2023-04-03T16:20:20;8.80;99.90